createdAt,value
2023-07-25T00:01:41.585Z,3.40
2023-07-25T00:04:08.109Z,3.40
2023-07-25T00:06:34.504Z,3.15
2023-07-25T00:09:00.831Z,2.92
2023-07-25T00:11:27.128Z,2.50
2023-07-25T00:13:53.424Z,2.50
2023-07-25T00:16:19.768Z,3.40
2023-07-25T00:18:46.150Z,2.58
2023-07-25T00:21:12.688Z,2.60
2023-07-25T00:23:38.975Z,2.72
2023-07-25T00:26:05.377Z,3.13
2023-07-25T00:28:31.647Z,2.70
2023-07-25T00:30:57.914Z,2.47
2023-07-25T00:33:24.168Z,2.58
2023-07-25T00:35:53.936Z,2.58
2023-07-25T00:38:20.258Z,2.30
2023-07-25T00:40:47.879Z,2.50
2023-07-25T00:43:14.601Z,2.25
2023-07-25T00:45:40.939Z,2.17
2023-07-25T00:48:07.305Z,2.20
2023-07-25T00:50:33.626Z,2.30
2023-07-25T00:53:00.337Z,2.20
2023-07-25T00:55:28.049Z,2.20
2023-07-25T00:57:54.346Z,2.15
2023-07-25T01:00:20.692Z,2.38
2023-07-25T01:02:47.107Z,2.60
2023-07-25T01:05:13.509Z,2.63
2023-07-25T01:07:41.232Z,2.58
2023-07-25T01:10:07.953Z,2.75
2023-07-25T01:12:34.270Z,2.13
2023-07-25T01:15:00.609Z,2.67
2023-07-25T01:17:27.653Z,2.13
2023-07-25T01:19:54.724Z,2.53
2023-07-25T01:22:21.278Z,2.70
2023-07-25T01:24:48.290Z,2.38
2023-07-25T01:27:15.293Z,2.40
2023-07-25T01:29:41.842Z,2.60
2023-07-25T01:32:08.485Z,2.40
2023-07-25T01:34:34.870Z,2.65
2023-07-25T01:37:01.188Z,2.60
2023-07-25T01:39:27.522Z,2.88
2023-07-25T01:41:53.816Z,2.50
2023-07-25T01:44:20.079Z,2.50
2023-07-25T01:46:46.349Z,2.70
2023-07-25T01:49:13.051Z,2.90
2023-07-25T01:51:39.873Z,2.65
2023-07-25T01:54:06.471Z,2.50
2023-07-25T01:56:32.748Z,3.28
2023-07-25T01:58:59.070Z,2.70
2023-07-25T02:01:25.432Z,2.95
2023-07-25T02:03:51.728Z,3.20
2023-07-25T02:06:18.005Z,2.90
2023-07-25T02:08:44.327Z,2.70
2023-07-25T02:11:10.627Z,2.67
2023-07-25T02:13:36.980Z,3.22
2023-07-25T02:16:03.294Z,2.72
2023-07-25T02:18:29.565Z,2.78
2023-07-25T02:20:55.922Z,2.70
2023-07-25T02:23:22.234Z,2.75
2023-07-25T02:25:48.674Z,3.17
2023-07-25T02:28:15.037Z,2.67
2023-07-25T02:30:41.369Z,2.55
2023-07-25T02:33:07.695Z,2.90
2023-07-25T02:35:33.969Z,3.00
2023-07-25T02:38:00.301Z,2.55
2023-07-25T02:40:26.649Z,3.10
2023-07-25T02:42:53.078Z,3.60
2023-07-25T02:45:19.438Z,3.03
2023-07-25T02:47:45.824Z,2.70
2023-07-25T02:50:12.227Z,3.58
2023-07-25T02:52:38.491Z,3.42
2023-07-25T02:55:06.371Z,3.10
2023-07-25T02:57:32.674Z,3.20
2023-07-25T02:59:59.033Z,2.97
2023-07-25T03:02:25.411Z,2.70
2023-07-25T03:04:51.874Z,3.25
2023-07-25T03:07:18.130Z,2.90
2023-07-25T03:09:45.219Z,2.85
2023-07-25T03:12:11.545Z,3.25
2023-07-25T03:14:37.816Z,3.10
2023-07-25T03:17:04.250Z,3.35
2023-07-25T03:19:30.535Z,3.28
2023-07-25T03:21:57.378Z,3.63
2023-07-25T03:24:23.705Z,3.20
2023-07-25T03:26:50.128Z,3.15
2023-07-25T03:29:16.452Z,3.55
2023-07-25T03:31:42.756Z,3.42
2023-07-25T03:34:09.071Z,3.28
2023-07-25T03:36:35.654Z,3.35
2023-07-25T03:39:02.116Z,3.72
2023-07-25T03:41:28.607Z,3.50
2023-07-25T03:43:54.991Z,3.10
2023-07-25T03:46:21.345Z,3.47
2023-07-25T03:48:47.639Z,3.40
2023-07-25T03:51:13.902Z,3.80
2023-07-25T03:53:40.158Z,3.33
2023-07-25T03:56:06.518Z,3.40
2023-07-25T03:58:32.781Z,3.08
2023-07-25T04:00:59.066Z,2.83
2023-07-25T04:03:27.520Z,3.15
2023-07-25T04:05:54.164Z,3.47
2023-07-25T04:08:20.419Z,3.80
2023-07-25T04:10:46.737Z,3.42
2023-07-25T04:13:13.215Z,3.60
2023-07-25T04:15:39.485Z,3.85
2023-07-25T04:18:05.907Z,3.53
2023-07-25T04:20:32.251Z,3.97
2023-07-25T04:23:00.152Z,3.92
2023-07-25T04:25:26.699Z,3.47
2023-07-25T04:27:52.980Z,3.58
2023-07-25T04:30:19.299Z,3.95
2023-07-25T04:32:45.642Z,3.90
2023-07-25T04:35:11.965Z,4.18
2023-07-25T04:37:38.413Z,3.67
2023-07-25T04:40:05.012Z,3.97
2023-07-25T04:42:31.300Z,4.50
2023-07-25T04:44:59.093Z,4.22
2023-07-25T04:47:25.733Z,3.65
2023-07-25T04:49:52.098Z,4.07
2023-07-25T04:52:18.366Z,3.67
2023-07-25T04:54:44.677Z,3.92
2023-07-25T04:57:10.960Z,4.22
2023-07-25T04:59:37.243Z,3.60
2023-07-25T05:02:03.570Z,3.63
2023-07-25T05:04:29.842Z,4.40
2023-07-25T05:06:56.250Z,4.15
2023-07-25T05:09:22.603Z,4.32
2023-07-25T05:11:52.042Z,5.22
2023-07-25T05:14:18.821Z,4.75
2023-07-25T05:16:45.129Z,4.25
2023-07-25T05:19:11.437Z,4.50
2023-07-25T05:21:37.710Z,4.07
2023-07-25T05:24:04.056Z,4.10
2023-07-25T05:26:30.397Z,4.32
2023-07-25T05:28:56.862Z,4.07
2023-07-25T05:31:23.245Z,4.10
2023-07-25T05:33:49.558Z,3.78
2023-07-25T05:36:15.879Z,4.35
2023-07-25T05:38:42.166Z,3.80
2023-07-25T05:41:08.430Z,4.25
2023-07-25T05:43:34.948Z,4.20
2023-07-25T05:46:01.302Z,4.13
2023-07-25T05:48:27.815Z,4.10
2023-07-25T05:50:54.085Z,3.50
2023-07-25T05:53:20.825Z,3.72
2023-07-25T05:55:47.499Z,3.55
2023-07-25T05:58:14.479Z,4.43
2023-07-25T06:00:40.753Z,3.50
2023-07-25T06:03:07.171Z,3.78
2023-07-25T06:05:35.107Z,3.22
2023-07-25T06:08:01.382Z,3.15
2023-07-25T06:10:27.640Z,3.75
2023-07-25T06:12:53.925Z,3.30
2023-07-25T06:15:20.203Z,3.25
2023-07-25T06:17:46.539Z,3.67
2023-07-25T06:20:13.183Z,3.10
2023-07-25T06:22:39.803Z,4.40
2023-07-25T06:25:08.672Z,3.60
2023-07-25T06:27:35.020Z,3.60
2023-07-25T06:30:01.891Z,3.22
2023-07-25T06:32:28.412Z,3.58
2023-07-25T06:34:54.804Z,3.47
2023-07-25T06:37:21.129Z,3.30
2023-07-25T06:39:47.456Z,3.85
2023-07-25T06:42:13.748Z,3.25
2023-07-25T06:44:40.087Z,2.70
2023-07-25T06:47:06.604Z,3.72
2023-07-25T06:49:32.947Z,3.15
2023-07-25T06:52:01.233Z,3.20
2023-07-25T06:54:27.662Z,3.15
2023-07-25T06:56:53.946Z,3.50
2023-07-25T06:59:20.462Z,2.72
2023-07-25T07:01:46.720Z,2.97
2023-07-25T07:04:13.033Z,2.78
2023-07-25T07:06:39.370Z,2.72
2023-07-25T07:09:05.693Z,3.05
2023-07-25T07:11:32.345Z,2.33
2023-07-25T07:13:58.820Z,2.40
2023-07-25T07:16:25.189Z,3.22
2023-07-25T07:18:52.175Z,2.67
2023-07-25T07:21:18.483Z,2.75
2023-07-25T07:23:44.765Z,2.28
2023-07-25T07:26:11.214Z,2.58
2023-07-25T07:28:38.030Z,2.42
2023-07-25T07:31:06.147Z,2.70
2023-07-25T07:33:34.674Z,2.55
2023-07-25T07:36:00.943Z,2.47
2023-07-25T07:38:27.201Z,2.58
2023-07-25T07:40:53.517Z,2.10
2023-07-25T07:43:19.941Z,2.60
2023-07-25T07:45:46.882Z,2.97
2023-07-25T07:48:13.237Z,2.25
2023-07-25T07:50:39.524Z,2.15
2023-07-25T07:53:05.809Z,2.22
2023-07-25T07:55:32.124Z,2.33
2023-07-25T07:57:58.440Z,2.25
2023-07-25T08:00:25.034Z,2.58
2023-07-25T08:02:52.248Z,2.45
2023-07-25T08:05:18.977Z,2.80
2023-07-25T08:07:45.364Z,2.00
2023-07-25T08:10:11.944Z,2.20
2023-07-25T08:12:38.573Z,2.63
2023-07-25T08:15:05.244Z,2.08
2023-07-25T08:17:31.624Z,2.28
2023-07-25T08:19:57.957Z,2.58
2023-07-25T08:22:24.272Z,2.53
2023-07-25T08:24:52.563Z,2.08
2023-07-25T08:27:18.859Z,2.90
2023-07-25T08:29:46.695Z,2.67
2023-07-25T08:32:13.368Z,2.63
2023-07-25T08:34:40.005Z,2.70
2023-07-25T08:37:06.939Z,2.35
2023-07-25T08:39:33.298Z,3.03
2023-07-25T08:42:00.937Z,2.22
2023-07-25T08:44:27.905Z,2.85
2023-07-25T08:46:55.065Z,2.30
2023-07-25T08:49:23.035Z,2.45
2023-07-25T08:51:52.348Z,2.70
2023-07-25T08:54:24.463Z,2.10
2023-07-25T08:56:51.039Z,2.33
2023-07-25T08:59:18.173Z,2.35
2023-07-25T09:01:45.229Z,2.25
2023-07-25T09:04:11.819Z,5.75
2023-07-25T09:06:38.242Z,3.58
2023-07-25T09:09:06.009Z,2.85
2023-07-25T09:11:33.997Z,2.47
2023-07-25T09:14:04.359Z,2.30
2023-07-25T09:16:30.984Z,2.45
2023-07-25T09:18:57.479Z,2.10
2023-07-25T09:21:23.844Z,1.80
2023-07-25T09:23:53.936Z,2.50
2023-07-25T09:26:23.854Z,2.20
2023-07-25T09:28:51.665Z,2.00
2023-07-25T09:31:21.603Z,2.00
2023-07-25T09:33:49.283Z,2.15
2023-07-25T09:36:15.987Z,2.15
2023-07-25T09:38:50.595Z,2.03
2023-07-25T09:41:17.386Z,2.20
2023-07-25T09:43:46.252Z,2.00
2023-07-25T09:46:13.058Z,1.92
2023-07-25T09:48:52.149Z,2.10
2023-07-25T10:12:08.145Z,2.22
2023-07-25T10:14:38.325Z,1.90
2023-07-25T10:17:05.315Z,1.92
2023-07-25T10:19:46.334Z,1.92
2023-07-25T10:22:12.851Z,2.20
2023-07-25T10:38:32.971Z,2.30
2023-07-25T11:02:31.307Z,2.53
2023-07-25T11:05:12.628Z,2.53
2023-07-25T11:11:08.319Z,2.40
2023-07-25T11:13:35.757Z,2.70
2023-07-25T11:19:30.829Z,2.40
2023-07-25T11:21:57.160Z,3.05
2023-07-25T11:24:23.508Z,2.47
2023-07-25T11:26:49.880Z,2.33
2023-07-25T11:29:17.928Z,2.65
2023-07-25T11:31:48.247Z,2.60
2023-07-25T11:34:15.456Z,2.28
2023-07-25T11:36:42.344Z,2.40
2023-07-25T11:39:09.828Z,2.72
2023-07-25T11:41:37.072Z,2.40
2023-07-25T11:47:32.232Z,2.03
2023-07-25T11:50:15.228Z,2.17
2023-07-25T11:52:46.559Z,2.28
2023-07-25T11:55:13.766Z,2.33
2023-07-25T11:57:42.132Z,1.95
2023-07-25T12:00:11.026Z,1.98
2023-07-25T12:02:38.197Z,1.90
2023-07-25T12:05:04.963Z,1.63
2023-07-25T12:07:50.423Z,1.63
2023-07-25T12:10:26.977Z,11.65
2023-07-25T12:12:54.092Z,2.28
2023-07-25T12:15:20.410Z,2.00
2023-07-25T12:17:46.890Z,2.25
2023-07-25T12:20:14.101Z,2.28
2023-07-25T12:22:40.549Z,2.17
2023-07-25T12:25:07.304Z,2.40
2023-07-25T12:27:34.633Z,2.03
2023-07-25T12:30:00.964Z,1.95
2023-07-25T12:32:27.344Z,2.20
2023-07-25T12:35:00.603Z,1.98
2023-07-25T12:37:26.945Z,1.95
2023-07-25T12:39:53.371Z,2.00
2023-07-25T12:42:19.655Z,1.65
2023-07-25T12:44:46.064Z,1.70
2023-07-25T12:47:12.348Z,1.92
2023-07-25T12:49:39.071Z,1.88
2023-07-25T12:52:05.674Z,2.42
2023-07-25T12:54:32.042Z,1.95
2023-07-25T12:56:58.375Z,1.65
2023-07-25T12:59:24.682Z,1.73
2023-07-25T13:01:51.119Z,1.75
2023-07-25T13:04:17.698Z,2.25
2023-07-25T13:06:44.389Z,2.00
2023-07-25T13:09:10.641Z,1.80
2023-07-25T13:11:36.931Z,1.90
2023-07-25T13:14:03.692Z,1.80
2023-07-25T13:16:30.515Z,2.17
2023-07-25T13:18:57.225Z,1.95
2023-07-25T13:21:23.750Z,2.13
2023-07-25T13:23:50.094Z,2.17
2023-07-25T13:26:16.465Z,2.35
2023-07-25T13:28:42.762Z,2.17
2023-07-25T13:31:09.216Z,2.22
2023-07-25T13:33:35.665Z,2.05
2023-07-25T13:36:02.044Z,2.30
2023-07-25T13:38:28.332Z,1.95
2023-07-25T13:40:54.664Z,2.10
2023-07-25T13:43:21.032Z,1.95
2023-07-25T13:45:52.769Z,1.67
2023-07-25T13:48:20.099Z,2.13
2023-07-25T13:50:52.765Z,2.03
2023-07-25T13:53:21.111Z,1.60
2023-07-25T13:55:47.444Z,1.88
2023-07-25T13:58:23.740Z,2.88
2023-07-25T14:00:50.711Z,2.55
2023-07-25T14:03:17.263Z,2.13
2023-07-25T14:05:43.558Z,2.20
2023-07-25T14:08:09.908Z,2.38
2023-07-25T14:10:36.610Z,1.60
2023-07-25T14:13:03.215Z,1.50
2023-07-25T14:15:31.438Z,2.10
2023-07-25T14:17:58.023Z,1.70
2023-07-25T14:20:25.085Z,1.67
2023-07-25T14:22:51.360Z,1.77
2023-07-25T14:25:17.674Z,1.60
2023-07-25T14:27:44.157Z,2.58
2023-07-25T14:30:10.693Z,1.95
2023-07-25T14:32:37.083Z,1.70
2023-07-25T14:35:04.398Z,1.70
2023-07-25T14:37:37.071Z,1.50
2023-07-25T14:40:14.823Z,1.65
2023-07-25T14:42:41.124Z,1.33
2023-07-25T14:45:07.615Z,1.40
2023-07-25T14:47:34.074Z,1.40
2023-07-25T14:50:00.557Z,1.50
2023-07-25T14:52:27.141Z,1.42
2023-07-25T14:54:53.426Z,1.23
2023-07-25T14:57:20.948Z,1.20
2023-07-25T14:59:47.416Z,1.27
2023-07-25T15:02:15.573Z,1.27
2023-07-25T15:04:43.750Z,1.20
2023-07-25T15:07:10.034Z,0.95
2023-07-25T15:09:36.529Z,1.10
2023-07-25T15:12:02.896Z,1.30
2023-07-25T15:14:29.424Z,1.27
2023-07-25T15:16:56.647Z,1.13
2023-07-25T15:19:22.971Z,1.35
2023-07-25T15:21:49.269Z,1.40
2023-07-25T15:24:15.688Z,1.00
2023-07-25T15:26:42.002Z,1.17
2023-07-25T15:29:08.240Z,1.27
2023-07-25T15:31:34.767Z,1.17
2023-07-25T15:34:01.263Z,1.30
2023-07-25T15:36:27.607Z,1.40
2023-07-25T15:38:53.869Z,1.30
2023-07-25T15:41:20.148Z,1.58
2023-07-25T15:43:46.984Z,1.55
2023-07-25T15:46:13.348Z,1.45
2023-07-25T15:48:39.623Z,1.35
2023-07-25T15:51:08.070Z,1.30
2023-07-25T15:53:34.410Z,1.15
2023-07-25T15:56:00.667Z,1.40
2023-07-25T15:58:27.012Z,1.33
2023-07-25T16:00:53.360Z,1.40
2023-07-25T16:03:19.769Z,1.40
2023-07-25T16:05:46.120Z,1.60
2023-07-25T16:08:12.411Z,1.38
2023-07-25T16:10:38.694Z,1.55
2023-07-25T16:13:04.972Z,1.42
2023-07-25T16:15:33.320Z,1.77
2023-07-25T16:18:00.552Z,1.70
2023-07-25T16:20:27.163Z,1.60
2023-07-25T16:22:53.496Z,1.70
2023-07-25T16:25:19.871Z,1.55
2023-07-25T16:27:46.160Z,1.60
2023-07-25T16:30:12.466Z,1.40
2023-07-25T16:32:38.783Z,1.63
2023-07-25T16:35:05.176Z,1.60
2023-07-25T16:37:31.435Z,1.80
2023-07-25T16:39:57.778Z,1.75
2023-07-25T16:42:24.068Z,1.67
2023-07-25T16:44:50.397Z,1.50
2023-07-25T16:47:17.315Z,1.50
2023-07-25T16:49:43.599Z,1.60
2023-07-25T16:52:09.931Z,1.85
2023-07-25T16:54:36.214Z,1.60
2023-07-25T16:57:02.539Z,1.67
2023-07-25T16:59:28.853Z,1.50
2023-07-25T17:01:55.261Z,1.60
2023-07-25T17:04:21.575Z,1.70
2023-07-25T17:06:48.581Z,1.50
2023-07-25T17:09:14.900Z,2.08
2023-07-25T17:11:43.402Z,1.67
2023-07-25T17:14:09.755Z,1.67
2023-07-25T17:16:36.155Z,2.22
2023-07-25T17:19:02.536Z,2.15
2023-07-25T17:21:39.991Z,2.20
2023-07-25T17:24:07.413Z,2.05
2023-07-25T17:26:33.669Z,2.13
2023-07-25T17:28:59.973Z,1.65
2023-07-25T17:31:26.324Z,2.22
2023-07-25T17:33:52.998Z,1.90
2023-07-25T17:36:19.341Z,2.05
2023-07-25T17:38:45.681Z,2.17
2023-07-25T17:41:12.666Z,1.98
2023-07-25T17:43:38.990Z,1.90
2023-07-25T17:46:05.604Z,2.03
2023-07-25T17:48:32.035Z,2.55
2023-07-25T17:50:58.942Z,2.03
2023-07-25T17:53:25.209Z,2.03
2023-07-25T17:55:51.545Z,1.90
2023-07-25T17:58:17.988Z,2.10
2023-07-25T18:00:47.676Z,1.90
2023-07-25T18:03:14.130Z,2.03
2023-07-25T18:05:41.848Z,2.15
2023-07-25T18:08:08.100Z,3.17
2023-07-25T18:10:34.584Z,2.75
2023-07-25T18:13:00.880Z,3.20
2023-07-25T18:15:30.036Z,2.92
2023-07-25T18:17:56.942Z,2.70
2023-07-25T18:20:23.352Z,2.95
2023-07-25T18:22:49.658Z,2.80
2023-07-25T18:25:15.930Z,2.50
2023-07-25T18:27:42.215Z,1.98
2023-07-25T18:30:08.887Z,2.70
2023-07-25T18:32:35.244Z,2.30
2023-07-25T18:35:01.572Z,2.08
2023-07-25T18:37:27.921Z,2.30
2023-07-25T18:39:55.015Z,2.38
2023-07-25T18:42:21.304Z,2.30
2023-07-25T18:44:47.625Z,2.30
2023-07-25T18:47:21.375Z,1.70
2023-07-25T18:49:55.351Z,1.80
2023-07-25T18:52:21.706Z,1.63
2023-07-25T18:54:48.028Z,1.60
2023-07-25T18:57:19.149Z,1.95
2023-07-25T18:59:45.494Z,1.45
2023-07-25T19:02:11.901Z,1.73
2023-07-25T19:04:38.232Z,1.70
2023-07-25T19:07:04.662Z,1.35
2023-07-25T19:09:30.960Z,1.52
2023-07-25T19:11:58.459Z,1.50
2023-07-25T19:14:24.784Z,1.60
2023-07-25T19:16:51.250Z,1.50
2023-07-25T19:19:17.603Z,1.35
2023-07-25T19:21:43.894Z,1.52
2023-07-25T19:24:10.249Z,1.10
2023-07-25T19:26:37.019Z,1.33
2023-07-25T19:29:03.364Z,1.20
2023-07-25T19:31:29.664Z,1.15
2023-07-25T19:33:57.596Z,1.00
2023-07-25T19:36:23.932Z,0.98
2023-07-25T19:38:50.273Z,1.05
2023-07-25T19:41:17.364Z,0.85
2023-07-25T19:43:44.081Z,1.00
2023-07-25T19:46:10.509Z,1.15
2023-07-25T19:48:37.050Z,0.93
2023-07-25T19:51:12.879Z,1.00
2023-07-25T19:53:39.935Z,1.08
2023-07-25T19:56:06.626Z,0.88
2023-07-25T19:58:32.999Z,0.90
2023-07-25T20:01:04.811Z,1.33
2023-07-25T20:03:31.560Z,0.90
2023-07-25T20:05:57.891Z,1.05
2023-07-25T20:08:24.306Z,1.00
2023-07-25T20:10:50.629Z,1.10
2023-07-25T20:13:17.034Z,0.95
2023-07-25T20:15:43.533Z,1.27
2023-07-25T20:18:11.098Z,0.80
2023-07-25T20:20:37.498Z,1.02
2023-07-25T20:23:03.823Z,0.90
2023-07-25T20:25:30.118Z,1.10
2023-07-25T20:27:56.387Z,1.00
2023-07-25T20:30:22.728Z,1.25
2023-07-25T20:32:49.092Z,1.33
2023-07-25T20:35:15.539Z,1.00
2023-07-25T20:37:41.817Z,1.23
2023-07-25T20:40:09.839Z,1.23
2023-07-25T20:42:36.372Z,0.90
2023-07-25T20:45:02.701Z,0.90
2023-07-25T20:47:29.813Z,0.95
2023-07-25T20:49:56.138Z,1.33
2023-07-25T20:52:22.518Z,1.27
2023-07-25T20:54:49.185Z,1.08
2023-07-25T20:57:15.520Z,1.30
2023-07-25T20:59:41.842Z,1.40
2023-07-25T21:02:08.464Z,0.80
2023-07-25T21:04:34.804Z,1.38
2023-07-25T21:07:01.131Z,1.10
2023-07-25T21:09:27.537Z,1.00
2023-07-25T21:11:53.797Z,1.55
2023-07-25T21:14:20.144Z,1.38
2023-07-25T21:16:46.432Z,1.33
2023-07-25T21:19:12.925Z,1.30
2023-07-25T21:21:39.297Z,1.02
2023-07-25T21:24:05.847Z,1.02
2023-07-25T21:26:32.520Z,1.23
2023-07-25T21:28:59.052Z,2.45
2023-07-25T21:31:25.788Z,1.42
2023-07-25T21:33:52.118Z,1.40
2023-07-25T21:36:18.497Z,1.48
2023-07-25T21:38:44.774Z,1.30
2023-07-25T21:41:15.614Z,1.77
2023-07-25T21:43:42.865Z,1.40
2023-07-25T21:46:09.236Z,1.25
2023-07-25T21:48:35.635Z,1.40
2023-07-25T21:51:02.010Z,1.20
2023-07-25T21:53:28.901Z,1.48
2023-07-25T21:55:56.013Z,1.20
2023-07-25T21:58:22.481Z,1.58
2023-07-25T22:00:48.867Z,1.38
2023-07-25T22:03:15.965Z,1.42
2023-07-25T22:05:42.381Z,1.50
2023-07-25T22:08:09.345Z,1.98
2023-07-25T22:10:36.108Z,1.67
2023-07-25T22:13:02.546Z,1.50
2023-07-25T22:15:29.022Z,1.55
2023-07-25T22:17:55.838Z,1.42
2023-07-25T22:20:22.157Z,1.52
2023-07-25T22:22:48.445Z,1.60
2023-07-25T22:25:14.871Z,1.45
2023-07-25T22:27:41.187Z,1.90
2023-07-25T22:30:07.689Z,1.60
2023-07-25T22:32:34.023Z,1.55
2023-07-25T22:35:00.341Z,1.85
2023-07-25T22:37:27.790Z,1.50
2023-07-25T22:39:54.117Z,1.55
2023-07-25T22:42:20.448Z,1.60
2023-07-25T22:44:46.815Z,1.83
2023-07-25T22:47:13.143Z,1.52
2023-07-25T22:49:39.419Z,1.55
2023-07-25T22:52:05.748Z,1.48
2023-07-25T22:54:32.045Z,1.90
2023-07-25T22:56:58.326Z,1.88
2023-07-25T22:59:24.630Z,2.00
2023-07-25T23:01:51.005Z,1.55
2023-07-25T23:04:17.317Z,1.70
2023-07-25T23:06:43.612Z,2.00
2023-07-25T23:09:09.915Z,1.60
2023-07-25T23:11:36.305Z,2.25
2023-07-25T23:14:02.605Z,1.70
2023-07-25T23:16:28.927Z,2.00
2023-07-25T23:18:55.620Z,1.80
2023-07-25T23:21:21.976Z,1.95
2023-07-25T23:23:48.286Z,1.70
2023-07-25T23:26:14.620Z,2.13
2023-07-25T23:28:40.988Z,2.00
2023-07-25T23:31:07.371Z,1.90
2023-07-25T23:33:33.685Z,1.90
2023-07-25T23:36:00.080Z,2.20
2023-07-25T23:38:26.385Z,1.98
2023-07-25T23:40:52.671Z,1.80
2023-07-25T23:43:18.956Z,1.70
2023-07-25T23:45:45.312Z,1.70
2023-07-25T23:48:11.826Z,2.22
2023-07-25T23:50:38.128Z,2.00
2023-07-25T23:53:04.432Z,1.80
2023-07-25T23:55:30.862Z,1.90
2023-07-25T23:57:57.152Z,1.95
